createdAt,value
2022-08-02T00:00:19.064Z,1.52
2022-08-02T00:00:51.112Z,1.55
2022-08-02T00:01:27.938Z,1.52
2022-08-02T00:02:00.364Z,1.40
2022-08-02T00:02:32.456Z,1.20
2022-08-02T00:03:04.485Z,1.50
2022-08-02T00:03:36.624Z,1.30
2022-08-02T00:04:08.865Z,1.30
2022-08-02T00:04:40.888Z,1.42
2022-08-02T00:05:13.439Z,1.42
2022-08-02T00:05:53.114Z,1.60
2022-08-02T00:06:26.336Z,1.52
2022-08-02T00:06:58.354Z,1.55
2022-08-02T00:07:30.414Z,1.40
2022-08-02T00:08:02.540Z,1.23
2022-08-02T00:08:34.669Z,1.90
2022-08-02T00:09:06.758Z,1.83
2022-08-02T00:09:38.808Z,1.35
2022-08-02T00:10:11.966Z,1.60
2022-08-02T00:10:43.986Z,1.38
2022-08-02T00:11:16.090Z,1.30
2022-08-02T00:11:48.188Z,1.30
2022-08-02T00:12:20.275Z,1.75
2022-08-02T00:12:53.202Z,1.50
2022-08-02T00:13:25.300Z,1.30
2022-08-02T00:13:57.516Z,1.50
2022-08-02T00:14:29.739Z,1.60
2022-08-02T00:15:01.887Z,1.70
2022-08-02T00:15:33.901Z,1.60
2022-08-02T00:16:05.970Z,1.63
2022-08-02T00:16:38.707Z,1.67
2022-08-02T00:17:10.930Z,1.42
2022-08-02T00:17:43.524Z,1.60
2022-08-02T00:18:15.691Z,1.70
2022-08-02T00:18:47.816Z,1.58
2022-08-02T00:19:19.916Z,1.48
2022-08-02T00:19:51.960Z,1.88
2022-08-02T00:20:24.017Z,1.20
2022-08-02T00:20:56.086Z,1.50
2022-08-02T00:21:28.396Z,1.92
2022-08-02T00:22:00.491Z,1.70
2022-08-02T00:22:32.605Z,1.40
2022-08-02T00:23:04.838Z,1.15
2022-08-02T00:24:03.322Z,1.52
2022-08-02T00:24:30.844Z,1.70
2022-08-02T00:25:03.326Z,1.40
2022-08-02T00:25:35.411Z,1.77
2022-08-02T00:26:26.355Z,1.50
2022-08-02T00:26:58.718Z,1.80
2022-08-02T00:27:30.891Z,1.67
2022-08-02T00:28:02.982Z,1.50
2022-08-02T00:28:35.012Z,2.00
2022-08-02T00:29:07.137Z,1.63
2022-08-02T00:29:52.209Z,1.50
2022-08-02T00:30:26.021Z,1.55
2022-08-02T00:30:58.486Z,1.73
2022-08-02T00:31:30.596Z,1.42
2022-08-02T00:32:02.767Z,2.00
2022-08-02T00:32:34.755Z,1.73
2022-08-02T00:33:08.358Z,1.70
2022-08-02T00:34:27.363Z,1.60
2022-08-02T00:34:35.129Z,1.80
2022-08-02T00:35:09.980Z,1.70
2022-08-02T00:35:42.304Z,1.70
2022-08-02T00:36:14.345Z,2.28
2022-08-02T00:36:46.351Z,1.88
2022-08-02T00:37:18.437Z,1.55
2022-08-02T00:37:50.773Z,1.52
2022-08-02T00:38:22.816Z,1.50
2022-08-02T00:38:54.819Z,1.55
2022-08-02T00:39:33.514Z,1.70
2022-08-02T00:40:08.856Z,1.67
2022-08-02T00:40:41.163Z,1.63
2022-08-02T00:41:16.359Z,1.60
2022-08-02T00:41:49.571Z,1.73
2022-08-02T00:42:22.695Z,1.58
2022-08-02T00:43:01.802Z,1.88
2022-08-02T00:43:33.832Z,1.40
2022-08-02T00:44:05.907Z,1.85
2022-08-02T00:44:37.961Z,1.98
2022-08-02T00:45:10.081Z,1.75
2022-08-02T00:46:02.442Z,1.65
2022-08-02T00:46:34.286Z,1.83
2022-08-02T00:47:06.320Z,1.80
2022-08-02T00:47:38.349Z,1.70
2022-08-02T00:48:11.130Z,1.67
2022-08-02T00:48:43.401Z,1.80
2022-08-02T00:49:15.538Z,1.60
2022-08-02T00:49:48.777Z,1.52
2022-08-02T00:50:20.825Z,1.80
2022-08-02T00:50:52.831Z,1.70
2022-08-02T00:51:24.936Z,1.50
2022-08-02T00:51:56.937Z,2.00
2022-08-02T00:52:29.016Z,1.75
2022-08-02T00:53:01.216Z,1.48
2022-08-02T00:53:33.948Z,1.67
2022-08-02T00:54:06.434Z,1.60
2022-08-02T00:54:38.407Z,1.77
2022-08-02T00:55:10.462Z,1.77
2022-08-02T00:55:43.947Z,1.50
2022-08-02T00:56:16.261Z,1.92
2022-08-02T00:56:49.814Z,1.60
2022-08-02T00:57:23.138Z,1.90
2022-08-02T00:57:55.299Z,1.92
2022-08-02T00:58:27.624Z,1.95
2022-08-02T00:58:59.710Z,1.63
2022-08-02T00:59:31.792Z,1.80
2022-08-02T01:00:04.419Z,1.52
2022-08-02T01:00:36.451Z,1.50
2022-08-02T01:01:08.586Z,1.60
2022-08-02T01:01:57.410Z,1.80
2022-08-02T01:02:30.307Z,1.80
2022-08-02T01:03:02.342Z,1.80
2022-08-02T01:03:34.405Z,1.70
2022-08-02T01:04:10.646Z,1.98
2022-08-02T01:04:42.727Z,1.33
2022-08-02T01:05:14.820Z,1.85
2022-08-02T01:05:55.836Z,2.20
2022-08-02T01:06:40.840Z,1.92
2022-08-02T01:07:14.463Z,1.40
2022-08-02T01:07:46.575Z,1.52
2022-08-02T01:08:18.975Z,1.77
2022-08-02T01:08:50.996Z,1.70
2022-08-02T01:09:23.038Z,1.70
2022-08-02T01:09:55.059Z,1.52
2022-08-02T01:10:27.115Z,1.60
2022-08-02T01:10:59.196Z,1.65
2022-08-02T01:11:31.243Z,1.98
2022-08-02T01:12:03.370Z,1.60
2022-08-02T01:12:35.685Z,1.83
2022-08-02T01:13:07.793Z,2.13
2022-08-02T01:13:40.238Z,1.58
2022-08-02T01:14:13.547Z,1.70
2022-08-02T01:14:50.177Z,1.67
2022-08-02T01:15:22.815Z,1.75
2022-08-02T01:16:14.969Z,2.40
2022-08-02T01:16:50.704Z,1.80
2022-08-02T01:17:29.041Z,1.83
2022-08-02T01:18:03.143Z,1.75
2022-08-02T01:18:38.543Z,2.08
2022-08-02T01:19:19.399Z,2.55
2022-08-02T01:19:57.548Z,1.85
2022-08-02T01:20:29.541Z,1.92
2022-08-02T01:21:12.033Z,2.20
2022-08-02T01:21:56.814Z,1.80
2022-08-02T01:22:58.486Z,2.15
2022-08-02T01:23:20.884Z,1.60
2022-08-02T01:24:16.000Z,1.95
2022-08-02T01:25:27.066Z,2.03
2022-08-02T01:26:07.790Z,1.88
2022-08-02T01:26:43.441Z,2.20
2022-08-02T01:27:24.742Z,1.90
2022-08-02T01:28:15.714Z,2.22
2022-08-02T01:29:06.302Z,2.53
2022-08-02T01:29:41.754Z,2.15
2022-08-02T01:30:14.371Z,2.58
2022-08-02T01:30:47.560Z,2.25
2022-08-02T01:31:42.722Z,2.13
2022-08-02T01:32:16.323Z,2.20
2022-08-02T01:32:50.570Z,2.00
2022-08-02T01:33:25.068Z,1.85
2022-08-02T01:34:01.366Z,2.03
2022-08-02T01:35:05.408Z,1.95
2022-08-02T01:35:51.072Z,2.30
2022-08-02T01:36:23.969Z,2.20
2022-08-02T01:36:58.804Z,2.03
2022-08-02T01:37:43.168Z,2.42
2022-08-02T01:38:19.619Z,2.42
2022-08-02T01:38:53.368Z,2.22
2022-08-02T01:39:32.551Z,2.47
2022-08-02T01:40:08.208Z,2.08
2022-08-02T01:40:42.051Z,2.22
2022-08-02T01:41:18.089Z,2.28
2022-08-02T01:41:50.604Z,2.67
2022-08-02T01:42:31.388Z,2.00
2022-08-02T01:43:04.698Z,2.20
2022-08-02T01:43:38.164Z,2.10
2022-08-02T01:44:12.052Z,2.20
2022-08-02T01:44:45.826Z,2.15
2022-08-02T01:45:19.584Z,1.75
2022-08-02T01:45:53.081Z,2.40
2022-08-02T01:46:26.782Z,1.85
2022-08-02T01:47:11.462Z,2.22
2022-08-02T01:47:45.059Z,2.25
2022-08-02T01:48:18.041Z,2.00
2022-08-02T01:48:50.854Z,2.00
2022-08-02T01:49:23.641Z,2.45
2022-08-02T01:49:57.472Z,2.13
2022-08-02T01:50:32.589Z,1.95
2022-08-02T01:51:05.088Z,1.90
2022-08-02T01:51:56.443Z,2.08
2022-08-02T01:52:31.315Z,2.45
2022-08-02T01:53:06.650Z,2.63
2022-08-02T01:53:40.828Z,2.03
2022-08-02T01:54:15.516Z,2.17
2022-08-02T01:54:54.402Z,2.00
2022-08-02T01:55:35.017Z,1.80
2022-08-02T01:56:24.001Z,2.33
2022-08-02T01:56:56.486Z,2.13
2022-08-02T01:57:32.536Z,2.72
2022-08-02T01:58:06.579Z,2.05
2022-08-02T01:58:39.532Z,2.17
2022-08-02T01:59:12.903Z,2.45
2022-08-02T01:59:45.796Z,2.17
2022-08-02T02:00:19.672Z,2.05
2022-08-02T02:00:52.455Z,2.28
2022-08-02T02:01:24.879Z,2.33
2022-08-02T02:01:57.542Z,2.97
2022-08-02T02:02:31.848Z,2.25
2022-08-02T02:03:05.442Z,1.83
2022-08-02T02:03:41.422Z,2.28
2022-08-02T02:04:15.367Z,2.10
2022-08-02T02:04:48.608Z,2.45
2022-08-02T02:05:21.908Z,2.30
2022-08-02T02:05:57.026Z,1.77
2022-08-02T02:06:29.617Z,2.28
2022-08-02T02:07:02.184Z,2.25
2022-08-02T02:07:35.060Z,2.38
2022-08-02T02:08:08.189Z,2.40
2022-08-02T02:08:41.678Z,2.28
2022-08-02T02:09:15.279Z,2.58
2022-08-02T02:09:50.489Z,1.98
2022-08-02T02:10:30.299Z,2.00
2022-08-02T02:12:09.555Z,2.42
2022-08-02T02:12:14.112Z,2.30
2022-08-02T02:12:47.336Z,2.42
2022-08-02T02:13:20.194Z,2.17
2022-08-02T02:13:53.137Z,2.00
2022-08-02T02:14:26.030Z,2.33
2022-08-02T02:15:00.213Z,2.47
2022-08-02T02:15:32.743Z,2.60
2022-08-02T02:16:06.020Z,2.28
2022-08-02T02:16:41.004Z,2.20
2022-08-02T02:18:10.566Z,2.47
2022-08-02T02:18:12.529Z,2.22
2022-08-02T02:18:46.974Z,2.30
2022-08-02T02:19:21.332Z,2.30
2022-08-02T02:19:55.515Z,2.45
2022-08-02T02:20:27.517Z,2.42
2022-08-02T02:20:59.519Z,2.42
2022-08-02T02:21:31.645Z,3.03
2022-08-02T02:22:04.223Z,2.88
2022-08-02T02:22:36.677Z,2.40
2022-08-02T02:23:09.556Z,2.33
2022-08-02T02:23:43.557Z,2.20
2022-08-02T02:24:15.971Z,2.40
2022-08-02T02:24:48.433Z,2.70
2022-08-02T02:25:23.705Z,2.53
2022-08-02T02:26:05.895Z,2.38
2022-08-02T02:26:48.659Z,2.30
2022-08-02T02:27:25.069Z,2.70
2022-08-02T02:28:06.570Z,2.90
2022-08-02T02:28:39.901Z,2.30
2022-08-02T02:29:12.237Z,2.30
2022-08-02T02:29:45.330Z,2.08
2022-08-02T02:30:17.619Z,2.45
2022-08-02T02:30:50.665Z,2.55
2022-08-02T02:31:22.757Z,2.40
2022-08-02T02:31:55.294Z,2.58
2022-08-02T02:32:27.874Z,2.35
2022-08-02T02:33:01.855Z,2.50
2022-08-02T02:33:35.359Z,2.25
2022-08-02T02:34:27.725Z,2.65
2022-08-02T02:35:00.359Z,2.40
2022-08-02T02:35:33.952Z,2.72
2022-08-02T02:36:07.914Z,2.17
2022-08-02T02:36:41.873Z,2.85
2022-08-02T02:37:16.633Z,2.30
2022-08-02T02:37:49.480Z,2.55
2022-08-02T02:38:22.147Z,2.13
2022-08-02T02:38:55.737Z,2.47
2022-08-02T02:39:28.562Z,2.45
2022-08-02T02:40:01.089Z,2.60
2022-08-02T02:40:33.545Z,2.55
2022-08-02T02:41:06.820Z,2.13
2022-08-02T02:41:39.981Z,2.13
2022-08-02T02:42:14.292Z,2.60
2022-08-02T02:42:47.283Z,2.60
2022-08-02T02:43:21.784Z,2.63
2022-08-02T02:43:54.703Z,2.40
2022-08-02T02:44:28.192Z,2.40
2022-08-02T02:45:00.918Z,2.47
2022-08-02T02:45:33.448Z,2.17
2022-08-02T02:46:06.665Z,2.70
2022-08-02T02:46:39.417Z,2.80
2022-08-02T02:47:11.865Z,2.42
2022-08-02T02:47:44.359Z,1.85
2022-08-02T02:48:17.443Z,2.63
2022-08-02T02:48:51.543Z,2.53
2022-08-02T02:49:24.299Z,2.25
2022-08-02T02:49:57.207Z,2.65
2022-08-02T02:50:30.621Z,2.63
2022-08-02T02:51:04.231Z,2.40
2022-08-02T02:51:36.645Z,2.50
2022-08-02T02:52:09.307Z,2.00
2022-08-02T02:52:41.775Z,2.40
2022-08-02T02:53:17.351Z,2.40
2022-08-02T02:54:32.728Z,2.40
2022-08-02T02:54:47.893Z,2.42
2022-08-02T02:55:20.070Z,2.60
2022-08-02T02:56:02.215Z,2.13
2022-08-02T02:56:35.812Z,2.45
2022-08-02T02:57:08.024Z,2.53
2022-08-02T02:57:40.317Z,2.47
2022-08-02T02:58:12.913Z,2.70
2022-08-02T02:58:46.966Z,2.10
2022-08-02T02:59:18.977Z,2.70
2022-08-02T02:59:51.157Z,2.72
2022-08-02T03:00:43.361Z,2.53
2022-08-02T03:01:56.056Z,2.65
2022-08-02T03:02:25.880Z,2.92
2022-08-02T03:02:57.971Z,2.63
2022-08-02T03:03:30.044Z,3.33
2022-08-02T03:04:04.215Z,2.60
2022-08-02T03:04:57.101Z,2.40
2022-08-02T03:05:29.512Z,2.28
2022-08-02T03:06:01.635Z,3.03
2022-08-02T03:06:47.372Z,2.60
2022-08-02T03:07:19.456Z,2.78
2022-08-02T03:07:51.493Z,2.50
2022-08-02T03:08:23.577Z,2.72
2022-08-02T03:08:56.940Z,3.10
2022-08-02T03:09:29.089Z,2.58
2022-08-02T03:10:01.419Z,2.50
2022-08-02T03:10:33.577Z,2.50
2022-08-02T03:11:06.022Z,3.10
2022-08-02T03:11:39.363Z,2.35
2022-08-02T03:12:11.859Z,2.63
2022-08-02T03:12:44.059Z,2.33
2022-08-02T03:13:16.304Z,2.40
2022-08-02T03:13:48.404Z,2.80
2022-08-02T03:14:20.827Z,2.42
2022-08-02T03:14:53.129Z,2.85
2022-08-02T03:15:27.544Z,2.63
2022-08-02T03:16:00.106Z,2.75
2022-08-02T03:16:32.249Z,2.45
2022-08-02T03:17:04.257Z,2.83
2022-08-02T03:17:43.907Z,2.53
2022-08-02T03:18:31.496Z,2.47
2022-08-02T03:19:03.745Z,2.70
2022-08-02T03:19:35.826Z,2.40
2022-08-02T03:20:09.440Z,2.97
2022-08-02T03:20:41.493Z,3.05
2022-08-02T03:21:13.965Z,2.38
2022-08-02T03:21:46.539Z,2.63
2022-08-02T03:22:18.632Z,2.70
2022-08-02T03:22:50.739Z,2.67
2022-08-02T03:23:22.732Z,2.53
2022-08-02T03:23:54.770Z,2.50
2022-08-02T03:24:28.286Z,2.38
2022-08-02T03:25:00.544Z,2.75
2022-08-02T03:25:32.564Z,2.50
2022-08-02T03:26:04.672Z,2.80
2022-08-02T03:26:36.725Z,2.40
2022-08-02T03:27:08.727Z,3.00
2022-08-02T03:27:40.738Z,3.10
2022-08-02T03:28:12.753Z,2.78
2022-08-02T03:28:44.825Z,2.45
2022-08-02T03:29:16.910Z,2.88
2022-08-02T03:29:48.905Z,2.88
2022-08-02T03:30:24.591Z,3.38
2022-08-02T03:30:56.687Z,2.53
2022-08-02T03:31:29.029Z,3.20
2022-08-02T03:32:05.130Z,2.95
2022-08-02T03:32:38.239Z,2.60
2022-08-02T03:33:10.893Z,2.88
2022-08-02T03:33:43.035Z,2.72
2022-08-02T03:34:15.107Z,3.03
2022-08-02T03:34:47.192Z,3.20
2022-08-02T03:35:23.866Z,2.70
2022-08-02T03:35:57.600Z,3.15
2022-08-02T03:36:31.892Z,3.13
2022-08-02T03:37:04.179Z,3.00
2022-08-02T03:37:36.926Z,2.92
2022-08-02T03:38:09.378Z,2.97
2022-08-02T03:38:42.321Z,2.85
2022-08-02T03:39:15.219Z,3.00
2022-08-02T03:39:52.810Z,3.25
2022-08-02T03:40:26.347Z,2.50
2022-08-02T03:40:58.649Z,2.95
2022-08-02T03:41:31.072Z,2.92
2022-08-02T03:42:03.171Z,3.22
2022-08-02T03:42:35.217Z,3.28
2022-08-02T03:43:08.667Z,3.25
2022-08-02T03:43:41.132Z,2.58
2022-08-02T03:44:13.858Z,3.25
2022-08-02T03:44:46.307Z,3.00
2022-08-02T03:45:18.516Z,2.90
2022-08-02T03:45:51.205Z,3.10
2022-08-02T03:46:24.966Z,3.10
2022-08-02T03:46:57.711Z,2.90
2022-08-02T03:47:30.080Z,3.25
2022-08-02T03:48:03.441Z,3.13
2022-08-02T03:48:55.957Z,3.13
2022-08-02T03:49:28.286Z,2.80
2022-08-02T03:50:01.276Z,3.45
2022-08-02T03:50:33.967Z,2.80
2022-08-02T03:51:06.902Z,3.03
2022-08-02T03:51:39.022Z,2.70
2022-08-02T03:52:11.382Z,3.50
2022-08-02T03:52:44.248Z,3.35
2022-08-02T03:53:19.902Z,3.17
2022-08-02T03:53:52.580Z,2.92
2022-08-02T03:54:34.417Z,2.60
2022-08-02T03:55:07.756Z,3.10
2022-08-02T03:55:40.076Z,3.88
2022-08-02T03:56:12.091Z,3.38
2022-08-02T03:56:44.236Z,3.22
2022-08-02T03:57:16.406Z,3.58
2022-08-02T03:57:48.604Z,3.22
2022-08-02T03:58:24.061Z,3.17
2022-08-02T03:59:06.092Z,3.50
2022-08-02T03:59:44.985Z,2.67
2022-08-02T04:00:21.014Z,2.80
2022-08-02T04:00:53.948Z,3.38
2022-08-02T04:01:27.547Z,3.45
2022-08-02T04:01:59.675Z,3.10
2022-08-02T04:02:35.892Z,3.60
2022-08-02T04:03:08.064Z,3.42
2022-08-02T04:03:43.252Z,3.30
2022-08-02T04:04:15.291Z,3.08
2022-08-02T04:04:47.261Z,3.17
2022-08-02T04:05:19.352Z,3.45
2022-08-02T04:06:03.867Z,3.10
2022-08-02T04:06:39.969Z,2.97
2022-08-02T04:07:13.748Z,4.05
2022-08-02T04:08:34.299Z,3.13
2022-08-02T04:08:39.009Z,2.88
2022-08-02T04:09:11.146Z,3.40
2022-08-02T04:09:43.175Z,3.05
2022-08-02T04:10:15.278Z,3.13
2022-08-02T04:11:05.844Z,3.30
2022-08-02T04:11:38.094Z,3.38
2022-08-02T04:12:11.049Z,3.80
2022-08-02T04:12:43.857Z,3.45
2022-08-02T04:13:15.884Z,3.35
2022-08-02T04:13:48.965Z,3.63
2022-08-02T04:14:22.101Z,3.20
2022-08-02T04:14:54.215Z,3.35
2022-08-02T04:15:26.355Z,3.53
2022-08-02T04:16:04.750Z,3.50
2022-08-02T04:16:41.185Z,3.25
2022-08-02T04:17:14.613Z,3.53
2022-08-02T04:17:49.492Z,3.63
2022-08-02T04:18:24.659Z,3.30
2022-08-02T04:19:00.211Z,3.40
2022-08-02T04:19:39.511Z,3.70
2022-08-02T04:20:22.735Z,3.47
2022-08-02T04:20:57.664Z,3.53
2022-08-02T04:21:48.970Z,3.53
2022-08-02T04:22:26.075Z,3.40
2022-08-02T04:23:17.992Z,3.97
2022-08-02T04:23:50.948Z,3.50
2022-08-02T04:24:25.657Z,3.33
2022-08-02T04:24:59.494Z,3.47
2022-08-02T04:25:35.590Z,3.50
2022-08-02T04:26:12.875Z,3.38
2022-08-02T04:26:45.252Z,3.50
2022-08-02T04:27:50.333Z,4.00
2022-08-02T04:28:18.141Z,3.50
2022-08-02T04:28:50.958Z,3.25
2022-08-02T04:29:24.165Z,3.50
2022-08-02T04:29:56.969Z,3.20
2022-08-02T04:30:30.184Z,3.30
2022-08-02T04:31:02.526Z,3.72
2022-08-02T04:31:35.476Z,3.80
2022-08-02T04:32:08.953Z,3.50
2022-08-02T04:32:41.442Z,3.50
2022-08-02T04:33:13.510Z,2.90
2022-08-02T04:33:46.422Z,3.10
2022-08-02T04:34:18.650Z,3.05
2022-08-02T04:35:17.723Z,2.97
2022-08-02T04:35:44.195Z,2.90
2022-08-02T04:36:30.894Z,3.03
2022-08-02T04:37:03.959Z,3.67
2022-08-02T04:37:37.489Z,2.95
2022-08-02T04:38:10.717Z,3.10
2022-08-02T04:38:43.011Z,2.95
2022-08-02T04:39:15.315Z,2.78
2022-08-02T04:39:47.373Z,3.15
2022-08-02T04:40:19.357Z,2.97
2022-08-02T04:40:52.700Z,3.35
2022-08-02T04:41:36.282Z,3.17
2022-08-02T04:42:19.942Z,3.45
2022-08-02T04:42:52.001Z,4.25
2022-08-02T04:43:24.803Z,3.22
2022-08-02T04:43:56.776Z,3.53
2022-08-02T04:44:28.836Z,3.80
2022-08-02T04:45:01.767Z,3.55
2022-08-02T04:45:34.126Z,3.55
2022-08-02T04:46:06.226Z,3.70
2022-08-02T04:46:38.608Z,3.47
2022-08-02T04:47:10.677Z,3.40
2022-08-02T04:47:54.389Z,3.25
2022-08-02T04:48:34.798Z,3.80
2022-08-02T04:49:07.200Z,3.80
2022-08-02T04:49:39.388Z,3.20
2022-08-02T04:50:11.468Z,3.40
2022-08-02T04:50:43.450Z,3.15
2022-08-02T04:51:15.499Z,3.10
2022-08-02T04:51:47.598Z,3.38
2022-08-02T04:52:19.583Z,3.25
2022-08-02T04:52:51.588Z,3.50
2022-08-02T04:53:23.708Z,3.50
2022-08-02T04:53:55.762Z,3.65
2022-08-02T04:54:38.535Z,3.78
2022-08-02T04:55:10.581Z,3.25
2022-08-02T04:55:42.772Z,3.85
2022-08-02T04:56:14.848Z,4.03
2022-08-02T04:56:47.167Z,3.30
2022-08-02T04:57:38.425Z,3.50
2022-08-02T04:58:39.877Z,3.63
2022-08-02T04:59:13.018Z,3.60
2022-08-02T04:59:45.007Z,2.88
2022-08-02T05:00:17.793Z,3.22
2022-08-02T05:00:50.151Z,3.47
2022-08-02T05:01:22.252Z,3.70
2022-08-02T05:01:54.554Z,3.40
2022-08-02T05:02:26.681Z,3.83
2022-08-02T05:02:59.241Z,3.20
2022-08-02T05:03:31.239Z,3.13
2022-08-02T05:04:03.719Z,3.47
2022-08-02T05:04:35.766Z,3.67
2022-08-02T05:05:10.258Z,3.97
2022-08-02T05:05:42.513Z,3.95
2022-08-02T05:06:19.189Z,3.30
2022-08-02T05:06:51.810Z,3.15
2022-08-02T05:07:23.912Z,3.58
2022-08-02T05:07:56.019Z,3.42
2022-08-02T05:08:28.112Z,3.50
2022-08-02T05:09:00.181Z,3.25
2022-08-02T05:09:32.221Z,3.53
2022-08-02T05:10:04.791Z,3.70
2022-08-02T05:10:36.888Z,3.85
2022-08-02T05:11:08.882Z,3.33
2022-08-02T05:11:40.923Z,3.60
2022-08-02T05:12:13.195Z,3.85
2022-08-02T05:12:45.544Z,3.60
2022-08-02T05:13:17.568Z,3.47
2022-08-02T05:13:58.668Z,3.80
2022-08-02T05:14:31.393Z,3.72
2022-08-02T05:15:03.533Z,3.42
2022-08-02T05:15:35.650Z,3.33
2022-08-02T05:16:07.705Z,3.97
2022-08-02T05:16:39.684Z,3.83
2022-08-02T05:17:11.683Z,3.60
2022-08-02T05:17:47.422Z,3.65
2022-08-02T05:18:20.105Z,3.70
2022-08-02T05:18:52.342Z,3.58
2022-08-02T05:19:24.381Z,3.47
2022-08-02T05:19:57.810Z,3.90
2022-08-02T05:20:29.858Z,3.30
2022-08-02T05:21:01.910Z,3.70
2022-08-02T05:21:33.898Z,3.90
2022-08-02T05:22:06.008Z,3.78
2022-08-02T05:22:38.041Z,3.67
2022-08-02T05:23:10.028Z,3.92
2022-08-02T05:23:42.072Z,3.70
2022-08-02T05:24:14.116Z,3.80
2022-08-02T05:24:46.160Z,3.28
2022-08-02T05:25:18.201Z,3.70
2022-08-02T05:25:50.253Z,3.60
2022-08-02T05:26:22.326Z,3.42
2022-08-02T05:26:54.316Z,3.45
2022-08-02T05:27:26.373Z,3.60
2022-08-02T05:27:58.441Z,3.03
2022-08-02T05:28:30.979Z,3.45
2022-08-02T05:29:04.681Z,3.13
2022-08-02T05:29:36.668Z,2.97
2022-08-02T05:30:09.249Z,3.10
2022-08-02T05:30:41.318Z,3.05
2022-08-02T05:31:13.657Z,3.25
2022-08-02T05:31:47.107Z,3.35
2022-08-02T05:32:19.112Z,3.30
2022-08-02T05:32:52.715Z,3.58
2022-08-02T05:33:24.820Z,3.47
2022-08-02T05:33:56.872Z,3.47
2022-08-02T05:34:28.867Z,3.17
2022-08-02T05:35:01.923Z,2.97
2022-08-02T05:35:35.044Z,3.20
2022-08-02T05:36:09.242Z,3.08
2022-08-02T05:36:42.225Z,2.90
2022-08-02T05:37:14.370Z,2.75
2022-08-02T05:37:48.169Z,3.28
2022-08-02T05:38:20.398Z,2.60
2022-08-02T05:39:04.674Z,2.88
2022-08-02T05:39:37.258Z,2.70
2022-08-02T05:40:29.071Z,2.63
2022-08-02T05:41:01.101Z,2.80
2022-08-02T05:41:33.362Z,2.50
2022-08-02T05:42:05.536Z,2.72
2022-08-02T05:42:37.576Z,2.75
2022-08-02T05:43:15.863Z,2.38
2022-08-02T05:43:47.970Z,2.70
2022-08-02T05:44:19.973Z,2.53
2022-08-02T05:44:51.978Z,2.60
2022-08-02T05:45:24.216Z,2.97
2022-08-02T05:45:56.300Z,2.33
2022-08-02T05:46:28.297Z,2.33
2022-08-02T05:47:00.307Z,2.60
2022-08-02T05:47:32.375Z,2.10
2022-08-02T05:48:04.729Z,2.60
2022-08-02T05:48:36.773Z,1.92
2022-08-02T05:49:08.845Z,2.83
2022-08-02T05:49:40.961Z,2.40
2022-08-02T05:50:13.040Z,2.40
2022-08-02T05:50:47.548Z,2.30
2022-08-02T05:51:22.997Z,2.85
2022-08-02T05:51:59.240Z,2.30
2022-08-02T05:52:36.711Z,2.40
2022-08-02T05:53:19.158Z,2.45
2022-08-02T05:53:52.625Z,2.65
2022-08-02T05:54:40.156Z,2.05
2022-08-02T05:55:15.888Z,2.30
2022-08-02T05:55:50.189Z,2.22
2022-08-02T05:56:30.079Z,2.30
2022-08-02T05:57:05.479Z,2.10
2022-08-02T05:57:43.322Z,2.15
2022-08-02T05:58:15.759Z,2.38
2022-08-02T05:58:56.212Z,1.92
2022-08-02T05:59:47.050Z,2.38
2022-08-02T06:00:19.786Z,1.80
2022-08-02T06:00:55.495Z,2.30
2022-08-02T06:01:29.291Z,2.13
2022-08-02T06:02:09.937Z,2.28
2022-08-02T06:03:01.043Z,2.47
2022-08-02T06:03:37.701Z,2.08
2022-08-02T06:04:10.720Z,2.03
2022-08-02T06:04:50.743Z,2.35
2022-08-02T06:05:22.902Z,2.40
2022-08-02T06:06:13.874Z,2.38
2022-08-02T06:06:47.963Z,2.40
2022-08-02T06:07:20.749Z,1.80
2022-08-02T06:07:53.888Z,2.40
2022-08-02T06:08:35.435Z,2.58
2022-08-02T06:09:14.942Z,2.53
2022-08-02T06:09:49.046Z,2.70
2022-08-02T06:10:21.640Z,1.80
2022-08-02T06:10:56.482Z,1.70
2022-08-02T06:11:35.976Z,2.20
2022-08-02T06:12:09.495Z,2.10
2022-08-02T06:12:54.000Z,2.45
2022-08-02T06:13:26.111Z,2.00
2022-08-02T06:13:58.388Z,2.10
2022-08-02T06:14:33.966Z,1.90
2022-08-02T06:15:06.292Z,2.25
2022-08-02T06:15:39.099Z,1.95
2022-08-02T06:16:31.857Z,2.20
2022-08-02T06:17:05.152Z,1.95
2022-08-02T06:17:41.906Z,2.05
2022-08-02T06:18:17.937Z,2.03
2022-08-02T06:19:00.516Z,2.53
2022-08-02T06:19:36.605Z,2.20
2022-08-02T06:20:24.163Z,2.20
2022-08-02T06:22:30.636Z,2.30
2022-08-02T06:22:33.422Z,2.22
2022-08-02T06:22:46.450Z,2.33
2022-08-02T06:23:20.935Z,2.45
2022-08-02T06:23:58.145Z,1.83
2022-08-02T06:24:32.966Z,1.92
2022-08-02T06:25:05.422Z,1.88
2022-08-02T06:25:49.621Z,2.00
2022-08-02T06:26:26.484Z,2.20
2022-08-02T06:26:58.949Z,1.73
2022-08-02T06:27:31.727Z,2.42
2022-08-02T06:28:04.702Z,1.90
2022-08-02T06:28:43.799Z,1.95
2022-08-02T06:29:15.897Z,1.85
2022-08-02T06:29:49.370Z,2.10
2022-08-02T06:30:21.810Z,2.00
2022-08-02T06:30:54.489Z,1.73
2022-08-02T06:31:26.606Z,1.90
2022-08-02T06:31:58.904Z,2.22
2022-08-02T06:32:31.902Z,1.95
2022-08-02T06:33:04.025Z,2.00
2022-08-02T06:33:36.041Z,1.98
2022-08-02T06:34:08.036Z,2.00
2022-08-02T06:34:40.115Z,2.47
2022-08-02T06:35:13.483Z,1.98
2022-08-02T06:35:46.627Z,2.13
2022-08-02T06:36:24.964Z,1.80
2022-08-02T06:37:01.412Z,2.42
2022-08-02T06:37:33.652Z,2.17
2022-08-02T06:38:06.906Z,1.73
2022-08-02T06:38:52.714Z,1.83
2022-08-02T06:39:28.497Z,2.22
2022-08-02T06:40:07.903Z,2.17
2022-08-02T06:40:48.234Z,2.10
2022-08-02T06:41:20.496Z,1.92
2022-08-02T06:41:55.498Z,2.38
2022-08-02T06:42:44.087Z,2.30
2022-08-02T06:43:39.338Z,1.83
2022-08-02T06:44:44.808Z,1.70
2022-08-02T06:45:03.853Z,2.08
2022-08-02T06:45:36.449Z,2.10
2022-08-02T06:47:09.204Z,1.75
2022-08-02T06:47:11.314Z,1.60
2022-08-02T06:47:45.212Z,2.15
2022-08-02T06:48:17.195Z,2.10
2022-08-02T06:48:49.202Z,1.88
2022-08-02T06:49:21.354Z,2.28
2022-08-02T06:49:54.891Z,1.98
2022-08-02T06:50:27.228Z,1.65
2022-08-02T06:50:59.225Z,1.83
2022-08-02T06:51:31.277Z,1.90
2022-08-02T06:52:03.488Z,1.90
2022-08-02T06:52:36.181Z,2.10
2022-08-02T06:53:08.756Z,1.80
2022-08-02T06:53:40.886Z,1.92
2022-08-02T06:54:13.065Z,1.90
2022-08-02T06:54:45.078Z,2.03
2022-08-02T06:55:17.598Z,1.90
2022-08-02T06:55:49.645Z,2.30
2022-08-02T06:56:21.669Z,1.70
2022-08-02T06:56:53.654Z,2.05
2022-08-02T06:57:25.957Z,2.17
2022-08-02T06:57:58.599Z,1.98
2022-08-02T06:58:30.605Z,2.10
2022-08-02T06:59:05.932Z,1.98
2022-08-02T06:59:38.403Z,2.00
2022-08-02T07:00:10.824Z,1.98
2022-08-02T07:00:43.385Z,2.10
2022-08-02T07:01:15.449Z,2.17
2022-08-02T07:01:47.528Z,2.13
2022-08-02T07:02:19.808Z,2.20
2022-08-02T07:02:51.845Z,1.90
2022-08-02T07:03:25.653Z,1.92
2022-08-02T07:03:57.858Z,1.77
2022-08-02T07:04:34.707Z,1.88
2022-08-02T07:05:07.202Z,1.95
2022-08-02T07:05:40.307Z,2.20
2022-08-02T07:06:12.388Z,2.15
2022-08-02T07:06:44.794Z,1.75
2022-08-02T07:07:16.881Z,1.83
2022-08-02T07:07:49.164Z,2.08
2022-08-02T07:08:21.293Z,2.20
2022-08-02T07:09:18.395Z,1.90
2022-08-02T07:09:56.951Z,1.90
2022-08-02T07:10:33.114Z,2.38
2022-08-02T07:11:05.850Z,1.90
2022-08-02T07:11:37.858Z,2.35
2022-08-02T07:12:10.137Z,2.08
2022-08-02T07:12:42.541Z,1.85
2022-08-02T07:13:14.505Z,1.60
2022-08-02T07:13:46.513Z,2.15
2022-08-02T07:14:18.564Z,2.22
2022-08-02T07:14:50.595Z,2.00
2022-08-02T07:15:22.635Z,2.03
2022-08-02T07:15:55.075Z,1.65
2022-08-02T07:16:27.095Z,1.80
2022-08-02T07:16:59.249Z,1.75
2022-08-02T07:17:33.440Z,1.90
2022-08-02T07:18:06.145Z,1.80
2022-08-02T07:18:38.141Z,1.98
2022-08-02T07:19:10.108Z,1.80
2022-08-02T07:19:42.105Z,2.00
2022-08-02T07:20:15.033Z,1.60
2022-08-02T07:20:47.082Z,1.80
2022-08-02T07:21:19.042Z,1.98
2022-08-02T07:22:12.987Z,1.80
2022-08-02T07:22:45.248Z,1.90
2022-08-02T07:23:17.281Z,1.70
2022-08-02T07:23:49.387Z,1.70
2022-08-02T07:24:21.392Z,1.92
2022-08-02T07:24:54.313Z,2.00
2022-08-02T07:25:26.366Z,2.10
2022-08-02T07:26:18.852Z,1.70
2022-08-02T07:27:10.561Z,1.80
2022-08-02T07:27:42.963Z,1.83
2022-08-02T07:28:23.697Z,1.85
2022-08-02T07:28:56.269Z,1.90
2022-08-02T07:29:28.546Z,2.05
2022-08-02T07:30:06.031Z,1.80
2022-08-02T07:30:38.611Z,1.50
2022-08-02T07:31:10.749Z,1.65
2022-08-02T07:31:42.730Z,1.80
2022-08-02T07:32:18.159Z,1.80
2022-08-02T07:32:50.194Z,1.60
2022-08-02T07:33:38.284Z,2.00
2022-08-02T07:34:11.281Z,1.55
2022-08-02T07:34:43.959Z,1.80
2022-08-02T07:35:23.489Z,1.73
2022-08-02T07:35:58.754Z,1.90
2022-08-02T07:36:33.793Z,1.92
2022-08-02T07:37:05.963Z,2.00
2022-08-02T07:37:55.293Z,1.88
2022-08-02T07:38:30.181Z,2.10
2022-08-02T07:39:02.258Z,1.60
2022-08-02T07:39:34.703Z,1.77
2022-08-02T07:40:12.374Z,1.65
2022-08-02T07:40:46.362Z,1.90
2022-08-02T07:41:18.356Z,1.42
2022-08-02T07:41:52.155Z,1.80
2022-08-02T07:42:24.246Z,1.92
2022-08-02T07:43:02.760Z,1.60
2022-08-02T07:43:36.015Z,2.05
2022-08-02T07:44:08.068Z,2.15
2022-08-02T07:44:40.123Z,2.00
2022-08-02T07:45:12.637Z,1.98